Time;durP1;ratioP1;P1;durP2;ratioP2;P2;SDS_P1;SDS_P2;PMS_P1;PMS_P2;Temp;Humidity;BMP_temperature;BMP_pressure;BME280_temperature;BME280_humidity;BME280_pressure;Samples;Min_cycle;Max_cycle;Signal;HPM_P1;HPM_P2
2022/12/27 00:00:20;;;;;;;2.43;0.93;;;6.60;99.90;;;;;;6210939;23;20204;-86
2022/12/27 00:02:46;;;;;;;2.20;1.37;;;6.50;99.90;;;;;;6185132;23;20194;-89
2022/12/27 00:05:13;;;;;;;7.00;0.87;;;6.50;99.90;;;;;;6160249;23;20156;-86
2022/12/27 00:07:38;;;;;;;3.27;2.03;;;6.40;99.90;;;;;;6184715;23;20213;-85
2022/12/27 00:10:06;;;;;;;0.40;0.40;;;6.40;99.90;;;;;;6184594;23;20730;-85
2022/12/27 00:12:32;;;;;;;0.60;0.60;;;6.40;99.90;;;;;;6211464;23;20181;-86
2022/12/27 00:14:58;;;;;;;2.97;1.43;;;6.30;99.90;;;;;;6160413;23;20178;-85
2022/12/27 00:17:26;;;;;;;2.83;1.17;;;6.30;99.90;;;;;;6211148;23;20218;-86
2022/12/27 00:19:52;;;;;;;0.20;0.20;;;6.40;99.90;;;;;;6136823;23;20173;-85
2022/12/27 00:22:18;;;;;;;0.73;0.33;;;6.40;99.90;;;;;;6211063;23;20158;-85
2022/12/27 00:24:43;;;;;;;9.53;0.53;;;6.40;99.90;;;;;;6159995;23;20162;-88
2022/12/27 00:27:09;;;;;;;0.40;0.40;;;6.50;99.90;;;;;;6135479;23;20224;-86
2022/12/27 00:29:35;;;;;;;0.77;0.77;;;6.50;99.90;;;;;;6160810;23;20167;-85
2022/12/27 00:32:01;;;;;;;6.80;1.20;;;6.60;99.90;;;;;;6211446;23;20526;-85
2022/12/27 00:34:27;;;;;;;0.13;0.13;;;6.60;99.90;;;;;;6184891;23;20150;-85
2022/12/27 00:36:53;;;;;;;0.10;0.10;;;6.60;99.90;;;;;;6210715;23;20613;-87
2022/12/27 00:39:18;;;;;;;0.73;0.73;;;6.60;99.90;;;;;;6184162;23;20170;-88
2022/12/27 00:41:45;;;;;;;3.50;1.00;;;6.60;99.90;;;;;;6184409;23;20162;-85
2022/12/27 00:44:11;;;;;;;13.17;1.23;;;6.70;99.90;;;;;;6184717;23;20162;-84
2022/12/27 00:46:37;;;;;;;5.40;0.87;;;6.70;99.90;;;;;;6183960;23;20205;-84
2022/12/27 00:49:03;;;;;;;0.20;0.20;;;6.70;99.90;;;;;;6159656;23;20168;-85
2022/12/27 00:51:28;;;;;;;1.10;1.10;;;6.70;99.90;;;;;;6184561;23;20162;-85
2022/12/27 00:53:54;;;;;;;0.43;0.43;;;6.70;99.90;;;;;;6159610;23;20586;-89
2022/12/27 00:56:23;;;;;;;0.90;0.53;;;6.80;99.90;;;;;;6184197;23;20161;-85
2022/12/27 00:59:00;;;;;;;0.23;0.23;;;6.80;99.90;;;;;;6184491;23;20181;-86
2022/12/27 01:01:27;;;;;;;0.30;0.30;;;6.70;99.90;;;;;;6210966;23;20593;-86
2022/12/27 01:03:54;;;;;;;0.57;0.30;;;6.60;99.90;;;;;;6211051;23;20150;-87
2022/12/27 01:06:22;;;;;;;1.50;0.73;;;6.50;99.90;;;;;;6184993;23;20158;-87
2022/12/27 01:08:48;;;;;;;0.30;0.30;;;6.40;99.90;;;;;;6211264;23;20496;-85
2022/12/27 01:11:16;;;;;;;0.53;0.53;;;6.30;99.90;;;;;;6184228;23;20210;-88
2022/12/27 01:13:42;;;;;;;0.53;0.53;;;6.30;99.90;;;;;;6160084;23;20162;-86
2022/12/27 01:16:14;;;;;;;0.57;0.57;;;6.20;99.90;;;;;;6184362;23;20182;-87
2022/12/27 01:18:41;;;;;;;0.63;0.63;;;6.20;99.90;;;;;;6184675;23;20232;-89
2022/12/27 01:21:10;;;;;;;9.63;0.47;;;6.20;99.90;;;;;;6210881;23;20150;-86
2022/12/27 01:23:37;;;;;;;0.30;0.30;;;6.10;99.90;;;;;;6183800;23;20150;-86
2022/12/27 01:26:06;;;;;;;0.30;0.30;;;6.10;99.90;;;;;;6183681;23;20159;-87
2022/12/27 01:28:32;;;;;;;3.10;1.00;;;6.10;99.90;;;;;;6183640;23;20193;-85
2022/12/27 01:31:02;;;;;;;0.43;0.43;;;6.10;99.90;;;;;;6183459;23;20158;-87
2022/12/27 01:33:28;;;;;;;0.30;0.30;;;6.20;99.90;;;;;;6160292;23;20153;-89
2022/12/27 01:35:54;;;;;;;0.30;0.30;;;6.20;99.90;;;;;;6159425;23;20577;-89
2022/12/27 01:38:20;;;;;;;0.97;0.30;;;6.30;99.90;;;;;;6210372;23;20244;-87
2022/12/27 01:40:45;;;;;;;0.33;0.33;;;6.30;99.90;;;;;;6210783;23;20656;-88
2022/12/27 01:43:17;;;;;;;2.17;1.70;;;6.20;99.90;;;;;;6184585;23;20158;-86
2022/12/27 01:45:44;;;;;;;0.20;0.20;;;6.30;99.90;;;;;;6184354;23;20478;-86
2022/12/27 01:48:22;;;;;;;0.80;0.80;;;6.30;99.90;;;;;;6184670;23;20186;-88
2022/12/27 01:50:54;;;;;;;0.30;0.30;;;6.30;99.90;;;;;;6184561;23;20380;-86
2022/12/27 01:53:52;;;;;;;4.33;0.77;;;6.30;99.90;;;;;;6184366;23;20150;-86
2022/12/27 01:56:26;;;;;;;2.63;2.53;;;6.20;99.90;;;;;;6110131;23;20158;-88
2022/12/27 01:59:04;;;;;;;15.67;1.80;;;6.20;99.90;;;;;;6209942;23;20147;-85
2022/12/27 02:01:37;;;;;;;1.10;1.10;;;6.30;99.90;;;;;;6183608;23;20196;-86
2022/12/27 02:04:15;;;;;;;6.43;0.97;;;6.40;99.90;;;;;;6210938;23;20146;-87
2022/12/27 02:06:41;;;;;;;2.07;1.07;;;6.50;99.90;;;;;;6185372;23;20138;-86
2022/12/27 02:09:16;;;;;;;3.13;0.87;;;6.60;99.90;;;;;;6161034;23;20166;-85
2022/12/27 02:11:51;;;;;;;0.93;0.83;;;6.60;99.90;;;;;;6212648;23;20573;-86
2022/12/27 02:14:22;;;;;;;5.33;1.30;;;6.60;99.90;;;;;;6186054;23;20142;-85
2022/12/27 02:16:48;;;;;;;2.10;1.60;;;6.70;99.90;;;;;;6212531;23;20158;-87
2022/12/27 02:19:35;;;;;;;2.90;1.63;;;6.70;99.90;;;;;;6186339;23;20166;-85
2022/12/27 02:25:41;;;;;;;0.30;0.30;;;6.50;99.90;;;;;;6212594;23;20158;-89
2022/12/27 02:28:39;;;;;;;2.87;0.70;;;6.50;99.90;;;;;;6212503;23;20185;-87
2022/12/27 02:31:15;;;;;;;0.30;0.30;;;6.50;99.90;;;;;;6212471;23;20147;-86
2022/12/27 02:33:46;;;;;;;0.57;0.57;;;6.60;99.90;;;;;;6212233;23;20152;-87
2022/12/27 02:36:22;;;;;;;1.47;1.30;;;6.60;99.90;;;;;;6186057;23;20574;-87
2022/12/27 02:38:52;;;;;;;0.50;0.50;;;6.60;99.90;;;;;;6212051;23;20192;-87
2022/12/27 02:53:03;;;;;;;0.53;0.53;;;6.40;99.90;;;;;;6211880;23;20142;-85
2022/12/27 02:55:35;;;;;;;11.67;0.90;;;6.40;99.90;;;;;;6212180;23;20154;-86
2022/12/27 02:58:39;;;;;;;4.50;1.80;;;6.30;99.90;;;;;;6211718;23;20597;-87
2022/12/27 03:04:04;;;;;;;1.23;0.67;;;6.30;99.90;;;;;;6211819;23;20150;-86
2022/12/27 03:06:40;;;;;;;0.50;0.40;;;6.40;99.90;;;;;;6211605;23;20221;-87
2022/12/27 03:15:56;;;;;;;0.33;0.33;;;6.20;99.90;;;;;;6211843;23;20473;-86
2022/12/27 03:18:21;;;;;;;0.83;0.63;;;6.20;99.90;;;;;;6212160;23;20147;-86
2022/12/27 03:26:21;;;;;;;6.70;1.73;;;6.20;99.90;;;;;;6211611;23;20146;-89
2022/12/27 03:34:37;;;;;;;0.20;0.20;;;6.20;99.90;;;;;;6211475;23;20135;-85
2022/12/27 03:40:12;;;;;;;0.77;0.77;;;6.20;99.90;;;;;;6211999;23;20244;-87
2022/12/27 03:48:23;;;;;;;1.47;1.47;;;6.20;99.90;;;;;;6210988;23;20227;-86
2022/12/27 03:51:03;;;;;;;0.20;0.20;;;6.20;99.90;;;;;;6210899;23;20168;-86
2022/12/27 03:53:39;;;;;;;1.20;0.40;;;6.30;99.90;;;;;;6211696;23;20153;-91
2022/12/27 03:56:06;;;;;;;0.30;0.30;;;6.30;99.90;;;;;;6211733;23;20153;-88
2022/12/27 03:58:32;;;;;;;0.40;0.40;;;6.20;99.90;;;;;;6185403;23;20320;-89
2022/12/27 04:00:58;;;;;;;0.20;0.20;;;6.00;99.90;;;;;;6211253;23;20159;-89
2022/12/27 04:03:24;;;;;;;0.53;0.53;;;5.90;99.90;;;;;;6160319;23;20154;-86
2022/12/27 04:05:50;;;;;;;0.40;0.40;;;5.80;99.90;;;;;;6211328;23;20624;-86
2022/12/27 04:35:38;;;;;;;0.70;0.70;;;5.60;99.90;;;;;;6188630;23;20150;-87
2022/12/27 04:38:04;;;;;;;1.60;1.50;;;5.70;99.90;;;;;;6159948;23;20605;-89
2022/12/27 04:57:03;;;;;;;3.30;1.40;;;5.80;99.90;;;;;;6211125;23;20160;-86
2022/12/27 05:02:14;;;;;;;0.83;0.60;;;5.70;99.90;;;;;;6210943;23;20729;-89
2022/12/27 05:04:41;;;;;;;0.67;0.53;;;5.70;99.90;;;;;;6184481;23;20208;-86
2022/12/27 05:15:26;;;;;;;0.40;0.40;;;5.60;99.90;;;;;;6211154;23;20158;-86
2022/12/27 05:17:51;;;;;;;0.30;0.30;;;5.70;99.90;;;;;;6210535;23;20345;-89
2022/12/27 05:20:17;;;;;;;0.20;0.20;;;5.60;99.90;;;;;;6158502;23;20185;-86
2022/12/27 05:25:33;;;;;;;0.67;0.67;;;5.60;99.90;;;;;;6187552;23;20161;-86
2022/12/27 05:28:08;;;;;;;0.63;0.63;;;5.70;99.90;;;;;;6159981;23;20657;-87
2022/12/27 05:30:36;;;;;;;7.83;1.93;;;5.70;99.90;;;;;;6183607;23;20557;-86
2022/12/27 05:33:02;;;;;;;0.47;0.47;;;5.60;99.90;;;;;;6209500;23;20273;-86
2022/12/27 05:35:28;;;;;;;0.30;0.30;;;5.60;99.90;;;;;;6183235;23;20570;-85
2022/12/27 05:37:54;;;;;;;0.40;0.40;;;5.60;99.90;;;;;;6185406;23;20220;-87
2022/12/27 05:40:21;;;;;;;0.20;0.20;;;5.50;99.90;;;;;;6212748;23;20174;-89
2022/12/27 05:42:47;;;;;;;0.27;0.27;;;5.50;99.90;;;;;;6186362;23;20216;-88
2022/12/27 05:45:13;;;;;;;1.17;1.03;;;5.40;99.90;;;;;;6212306;23;20515;-88
2022/12/27 05:47:39;;;;;;;0.30;0.30;;;5.40;99.90;;;;;;6212405;23;20264;-85
2022/12/27 05:50:06;;;;;;;0.40;0.40;;;5.40;99.90;;;;;;6212616;23;20158;-85
2022/12/27 05:52:32;;;;;;;0.27;0.27;;;5.40;99.90;;;;;;6160727;23;20158;-88
2022/12/27 05:54:57;;;;;;;0.23;0.23;;;5.40;99.90;;;;;;6185731;23;20524;-86
2022/12/27 05:57:23;;;;;;;0.40;0.40;;;5.40;99.90;;;;;;6211440;23;20184;-86
2022/12/27 05:59:49;;;;;;;2.53;1.40;;;5.40;99.90;;;;;;6185251;23;20639;-85
2022/12/27 06:02:15;;;;;;;4.53;0.77;;;5.40;99.90;;;;;;6211649;23;20162;-85
2022/12/27 06:04:40;;;;;;;0.30;0.30;;;5.40;99.90;;;;;;6185316;23;20164;-85
2022/12/27 06:07:08;;;;;;;3.53;1.07;;;5.40;99.90;;;;;;6185294;23;20197;-85
2022/12/27 06:09:34;;;;;;;2.13;0.83;;;5.40;99.90;;;;;;6185255;23;20293;-85
2022/12/27 06:12:00;;;;;;;0.40;0.40;;;5.40;99.90;;;;;;6185021;23;20232;-85
2022/12/27 06:14:26;;;;;;;0.30;0.30;;;5.40;99.90;;;;;;6212145;23;20723;-85
2022/12/27 06:16:54;;;;;;;5.53;1.37;;;5.40;99.90;;;;;;6212219;23;20234;-89
2022/12/27 06:19:20;;;;;;;0.30;0.30;;;5.40;99.90;;;;;;6211865;23;20581;-88
2022/12/27 06:21:46;;;;;;;0.50;0.50;;;5.40;99.90;;;;;;6185311;23;20154;-85
2022/12/27 06:24:12;;;;;;;7.00;0.73;;;5.40;99.90;;;;;;6185559;23;20154;-85
2022/12/27 06:26:37;;;;;;;0.77;0.77;;;5.40;99.90;;;;;;6185420;23;20163;-86
2022/12/27 06:29:04;;;;;;;0.77;0.77;;;5.40;99.90;;;;;;6212475;23;20281;-85
2022/12/27 06:31:30;;;;;;;0.50;0.50;;;5.40;99.90;;;;;;6186164;23;20169;-86
2022/12/27 06:33:56;;;;;;;0.57;0.57;;;5.30;99.90;;;;;;6185949;23;20170;-86
2022/12/27 06:36:25;;;;;;;1.60;0.70;;;5.30;99.90;;;;;;6160667;23;20158;-84
2022/12/27 06:38:51;;;;;;;3.93;1.47;;;5.30;99.90;;;;;;6212264;23;20523;-86
2022/12/27 06:41:17;;;;;;;0.60;0.60;;;5.30;99.90;;;;;;6185360;23;20196;-87
2022/12/27 06:43:44;;;;;;;0.30;0.30;;;5.30;99.90;;;;;;6185389;23;20150;-85
2022/12/27 06:46:13;;;;;;;0.40;0.40;;;5.30;99.90;;;;;;6212429;23;20205;-85
2022/12/27 06:48:39;;;;;;;1.37;1.33;;;5.30;99.90;;;;;;6211780;23;20181;-86
2022/12/27 06:51:06;;;;;;;0.27;0.27;;;5.30;99.90;;;;;;6185725;23;20472;-86
2022/12/27 06:53:32;;;;;;;0.57;0.50;;;5.30;99.90;;;;;;6212143;23;20161;-86
2022/12/27 06:56:07;;;;;;;0.40;0.40;;;5.30;99.90;;;;;;6185465;23;20594;-85
2022/12/27 06:58:33;;;;;;;0.30;0.30;;;5.30;99.90;;;;;;6212293;23;20153;-86
2022/12/27 07:01:11;;;;;;;0.30;0.30;;;5.30;99.90;;;;;;6160946;23;20163;-85
2022/12/27 07:03:37;;;;;;;0.30;0.30;;;5.50;99.90;;;;;;6185369;23;20149;-85
2022/12/27 07:06:04;;;;;;;3.03;1.80;;;5.40;99.90;;;;;;6211902;23;20193;-86
2022/12/27 07:08:30;;;;;;;0.50;0.50;;;5.40;99.90;;;;;;6185332;23;20210;-85
2022/12/27 07:11:05;;;;;;;3.10;1.67;;;5.40;99.90;;;;;;6211668;23;20162;-84
2022/12/27 07:13:37;;;;;;;1.37;1.27;;;5.40;99.90;;;;;;6211544;23;20142;-84
2022/12/27 07:16:07;;;;;;;1.57;1.43;;;5.40;99.90;;;;;;6211916;23;20196;-86
2022/12/27 07:18:33;;;;;;;5.00;0.80;;;5.30;99.90;;;;;;6211518;23;20325;-85
2022/12/27 07:21:04;;;;;;;1.23;0.63;;;5.20;99.90;;;;;;6211850;23;20154;-85
2022/12/27 07:23:29;;;;;;;0.70;0.70;;;5.20;99.90;;;;;;6211708;23;20153;-87
2022/12/27 07:26:01;;;;;;;0.70;0.70;;;5.10;99.90;;;;;;6160637;23;20233;-86
2022/12/27 07:28:29;;;;;;;1.47;1.07;;;5.10;99.90;;;;;;6160388;23;20170;-85
2022/12/27 07:30:55;;;;;;;6.33;0.60;;;5.00;99.90;;;;;;6185401;23;20158;-89
2022/12/27 07:33:20;;;;;;;0.20;0.20;;;5.00;99.90;;;;;;6211264;23;20185;-87
2022/12/27 07:35:46;;;;;;;0.70;0.67;;;5.00;99.90;;;;;;6136336;23;20154;-85
2022/12/27 07:38:12;;;;;;;1.83;0.33;;;5.00;99.90;;;;;;6160582;23;20306;-86
2022/12/27 07:40:38;;;;;;;0.93;0.93;;;5.00;99.90;;;;;;6210938;23;20158;-87
2022/12/27 07:43:03;;;;;;;0.70;0.70;;;4.90;99.90;;;;;;6211379;23;20168;-88
2022/12/27 07:45:29;;;;;;;1.43;0.73;;;4.90;99.90;;;;;;6184743;23;20162;-87
2022/12/27 07:47:55;;;;;;;5.87;0.87;;;4.90;99.90;;;;;;6159560;23;20178;-88
2022/12/27 07:50:23;;;;;;;1.93;1.00;;;5.00;99.90;;;;;;6159462;23;20168;-90
2022/12/27 07:52:49;;;;;;;1.60;1.50;;;5.00;99.90;;;;;;6183927;23;20150;-89
2022/12/27 07:55:15;;;;;;;2.03;1.93;;;5.00;99.90;;;;;;6160077;23;20244;-86
2022/12/27 07:57:41;;;;;;;14.83;1.47;;;5.00;99.90;;;;;;6160109;23;20562;-86
2022/12/27 08:00:07;;;;;;;0.70;0.70;;;5.00;99.90;;;;;;6179940;23;20338;-87
2022/12/27 08:02:36;;;;;;;0.53;0.53;;;5.00;99.90;;;;;;6179275;23;20166;-86
2022/12/27 08:05:02;;;;;;;0.60;0.60;;;5.00;99.90;;;;;;6159466;23;20158;-87
2022/12/27 08:07:28;;;;;;;11.67;1.20;;;5.00;99.90;;;;;;6184777;23;20277;-86
2022/12/27 08:09:54;;;;;;;1.50;1.43;;;5.00;99.90;;;;;;6184802;23;20209;-86
2022/12/27 08:12:19;;;;;;;16.13;1.67;;;5.00;99.90;;;;;;6211232;23;20208;-88
2022/12/27 08:14:45;;;;;;;5.50;1.83;;;5.00;99.90;;;;;;6211502;23;20771;-87
2022/12/27 08:17:21;;;;;;;3.93;1.13;;;5.00;99.90;;;;;;6160537;23;20186;-88
2022/12/27 08:19:49;;;;;;;0.30;0.30;;;5.10;99.90;;;;;;6210754;23;20581;-85
2022/12/27 08:22:15;;;;;;;1.83;0.60;;;5.00;99.90;;;;;;6210748;23;20154;-86
2022/12/27 08:24:42;;;;;;;0.50;0.50;;;5.10;99.90;;;;;;6159553;23;20229;-86
2022/12/27 08:27:09;;;;;;;2.87;1.57;;;5.10;99.90;;;;;;6184772;23;20189;-87
2022/12/27 08:29:35;;;;;;;1.40;1.10;;;5.20;99.90;;;;;;6184256;23;20238;-86
2022/12/27 08:32:01;;;;;;;0.40;0.40;;;5.30;99.90;;;;;;6183937;23;20237;-86
2022/12/27 08:34:27;;;;;;;0.50;0.50;;;5.30;99.90;;;;;;6209897;23;20267;-87
2022/12/27 08:36:53;;;;;;;0.30;0.30;;;5.40;99.90;;;;;;6209665;23;20158;-87
2022/12/27 08:39:18;;;;;;;0.30;0.30;;;5.50;99.90;;;;;;6209853;23;20197;-87
2022/12/27 08:41:45;;;;;;;0.80;0.80;;;5.60;99.90;;;;;;6183057;23;20154;-86
2022/12/27 08:44:11;;;;;;;0.73;0.73;;;5.70;99.90;;;;;;6210221;23;20154;-87
2022/12/27 08:46:37;;;;;;;0.20;0.20;;;5.80;99.90;;;;;;6210235;23;20154;-87
2022/12/27 08:49:03;;;;;;;0.90;0.90;;;5.80;99.90;;;;;;6183913;23;20197;-87
2022/12/27 08:51:29;;;;;;;1.03;0.80;;;5.90;99.90;;;;;;6183642;23;20208;-86
2022/12/27 08:53:55;;;;;;;4.93;2.17;;;6.00;99.90;;;;;;6183927;23;20158;-85
2022/12/27 08:56:21;;;;;;;0.30;0.30;;;6.10;99.90;;;;;;6209676;23;20490;-86
2022/12/27 08:58:50;;;;;;;0.57;0.57;;;6.20;99.90;;;;;;6184433;23;20166;-85
2022/12/27 09:01:16;;;;;;;1.53;1.43;;;6.30;99.90;;;;;;6210313;23;20160;-86
2022/12/27 09:03:42;;;;;;;2.17;2.00;;;6.40;99.90;;;;;;6210258;23;20161;-85
2022/12/27 09:06:08;;;;;;;1.60;1.17;;;6.40;99.90;;;;;;6210453;23;20593;-86
2022/12/27 09:08:34;;;;;;;19.30;1.97;;;6.40;99.90;;;;;;6209301;23;20182;-86
2022/12/27 09:11:21;;;;;;;0.60;0.60;;;6.40;99.90;;;;;;6158707;23;20379;-86
2022/12/27 09:13:47;;;;;;;2.13;1.97;;;6.30;99.90;;;;;;6186872;23;20204;-86
2022/12/27 09:16:20;;;;;;;14.53;2.60;;;6.30;99.90;;;;;;6186879;23;20249;-86
2022/12/27 09:18:48;;;;;;;0.87;0.87;;;6.20;99.90;;;;;;6187135;23;20154;-86
2022/12/27 09:21:15;;;;;;;0.73;0.60;;;6.20;99.90;;;;;;6213919;23;20154;-86
2022/12/27 09:23:42;;;;;;;8.17;1.63;;;6.20;99.90;;;;;;6213608;23;20150;-86
2022/12/27 09:26:14;;;;;;;3.90;2.03;;;6.20;99.90;;;;;;6213957;23;20153;-86
2022/12/27 09:28:40;;;;;;;2.27;1.93;;;6.20;99.90;;;;;;6213597;23;20217;-86
2022/12/27 09:31:10;;;;;;;2.13;1.27;;;6.30;99.90;;;;;;6162915;23;20162;-85
2022/12/27 09:33:37;;;;;;;1.30;1.20;;;6.30;99.90;;;;;;6187553;23;20157;-84
2022/12/27 09:36:09;;;;;;;2.10;2.00;;;6.40;99.90;;;;;;6187887;23;20236;-85
2022/12/27 09:38:35;;;;;;;0.60;0.60;;;6.40;99.90;;;;;;6187489;23;20169;-89
2022/12/27 09:41:05;;;;;;;2.63;1.20;;;6.50;99.90;;;;;;6187936;23;20150;-87
2022/12/27 09:43:46;;;;;;;2.30;2.13;;;6.60;99.90;;;;;;6187862;23;20442;-87
2022/12/27 09:46:17;;;;;;;0.80;0.80;;;6.70;99.90;;;;;;6188344;23;20576;-86
2022/12/27 09:48:47;;;;;;;5.40;1.87;;;6.80;99.90;;;;;;6187574;23;20257;-87
2022/12/27 09:51:29;;;;;;;0.87;0.70;;;6.90;99.90;;;;;;6214273;23;20165;-88
2022/12/27 09:54:21;;;;;;;1.57;1.47;;;7.00;99.90;;;;;;6214110;23;20173;-88
2022/12/27 09:56:49;;;;;;;1.17;0.70;;;7.20;99.90;;;;;;6198094;23;20466;-88
2022/12/27 09:59:30;;;;;;;1.10;1.07;;;7.30;99.90;;;;;;6214782;23;20232;-87
2022/12/27 10:01:56;;;;;;;1.13;1.07;;;7.20;99.90;;;;;;6188446;23;20146;-87
2022/12/27 10:04:22;;;;;;;2.37;1.13;;;7.30;99.90;;;;;;6187304;23;20196;-87
2022/12/27 10:06:47;;;;;;;2.13;0.47;;;7.30;99.90;;;;;;6213330;23;20212;-86
2022/12/27 10:09:16;;;;;;;3.93;0.87;;;7.40;99.90;;;;;;6213628;23;20165;-86
2022/12/27 10:11:46;;;;;;;0.60;0.60;;;7.40;99.90;;;;;;6213023;23;20154;-86
2022/12/27 10:14:46;;;;;;;1.37;1.33;;;7.40;99.90;;;;;;6213721;23;20154;-86
2022/12/27 10:17:18;;;;;;;4.73;1.00;;;7.30;99.90;;;;;;6213945;23;20165;-87
2022/12/27 10:19:59;;;;;;;0.10;0.10;;;7.30;99.90;;;;;;6213635;23;20185;-87
2022/12/27 10:22:41;;;;;;;0.60;0.60;;;7.20;99.90;;;;;;6187328;23;20146;-88
2022/12/27 10:25:13;;;;;;;5.63;1.10;;;7.20;99.90;;;;;;6185755;23;20621;-85
2022/12/27 10:27:39;;;;;;;3.63;1.53;;;7.20;99.90;;;;;;6212691;23;20174;-88
2022/12/27 10:30:16;;;;;;;1.30;0.60;;;7.30;99.90;;;;;;6186476;23;20166;-88
2022/12/27 10:32:43;;;;;;;1.33;1.23;;;7.40;99.90;;;;;;6212654;23;20173;-87
2022/12/27 10:35:16;;;;;;;0.80;0.80;;;7.50;99.90;;;;;;6186567;23;20205;-86
2022/12/27 10:37:42;;;;;;;0.83;0.83;;;7.70;99.90;;;;;;6186187;23;20241;-87
2022/12/27 10:40:30;;;;;;;0.70;0.70;;;7.70;99.90;;;;;;6200774;23;20212;-87
2022/12/27 10:42:56;;;;;;;0.63;0.63;;;7.80;99.90;;;;;;6212324;23;20146;-88
2022/12/27 10:45:31;;;;;;;1.43;0.97;;;7.90;99.90;;;;;;6185985;23;20154;-86
2022/12/27 10:48:15;;;;;;;0.43;0.43;;;7.80;99.90;;;;;;6185685;23;20185;-87
2022/12/27 10:51:05;;;;;;;1.30;1.07;;;7.90;99.90;;;;;;6184896;23;20161;-88
2022/12/27 10:53:39;;;;;;;0.53;0.53;;;7.90;99.90;;;;;;6212493;23;20486;-88
2022/12/27 10:56:25;;;;;;;0.63;0.63;;;8.00;99.90;;;;;;6212411;23;20232;-86
2022/12/27 10:59:06;;;;;;;4.23;0.93;;;8.00;99.90;;;;;;6185764;23;20154;-88
2022/12/27 11:01:33;;;;;;;0.30;0.30;;;8.00;99.90;;;;;;6211991;23;20146;-88
2022/12/27 11:04:13;;;;;;;7.83;0.50;;;7.90;99.90;;;;;;6211666;23;20162;-88
2022/12/27 11:06:40;;;;;;;0.73;0.73;;;7.80;99.90;;;;;;6185258;23;20146;-87
2022/12/27 11:09:42;;;;;;;0.80;0.80;;;7.80;99.90;;;;;;6183674;23;20269;-87
2022/12/27 11:12:23;;;;;;;0.87;0.87;;;7.70;99.90;;;;;;6148638;23;20153;-87
2022/12/27 11:15:01;;;;;;;0.40;0.40;;;7.70;99.90;;;;;;6212584;23;20226;-88
2022/12/27 11:17:42;;;;;;;1.27;1.23;;;7.70;99.90;;;;;;6212414;23;20150;-86
2022/12/27 11:20:31;;;;;;;2.00;1.60;;;7.80;99.90;;;;;;6186369;23;20221;-89
2022/12/27 11:23:01;;;;;;;1.37;1.27;;;8.00;99.90;;;;;;6185928;23;20550;-86
2022/12/27 11:25:28;;;;;;;0.37;0.37;;;8.40;99.90;;;;;;6211814;23;20181;-87
2022/12/27 11:28:05;;;;;;;1.07;1.07;;;8.50;99.90;;;;;;6212244;23;20209;-86
2022/12/27 11:30:37;;;;;;;1.27;0.57;;;8.30;99.90;;;;;;6184837;23;20143;-89
2022/12/27 11:33:19;;;;;;;1.63;0.93;;;8.10;99.90;;;;;;6185603;23;20627;-87
2022/12/27 11:35:50;;;;;;;1.60;1.50;;;7.90;99.90;;;;;;6211686;23;20231;-85
2022/12/27 11:38:28;;;;;;;2.43;1.37;;;7.80;99.90;;;;;;6186217;23;20166;-87
2022/12/27 11:41:16;;;;;;;0.80;0.60;;;7.90;99.90;;;;;;6185963;23;20142;-87
2022/12/27 11:43:49;;;;;;;4.03;1.70;;;7.90;99.90;;;;;;6212308;23;20154;-88
2022/12/27 11:46:27;;;;;;;2.87;2.67;;;8.00;99.90;;;;;;6185583;23;20146;-86
2022/12/27 11:48:57;;;;;;;2.30;1.60;;;7.90;99.90;;;;;;6211882;23;20177;-87
2022/12/27 11:51:49;;;;;;;0.90;0.90;;;8.00;99.90;;;;;;6186048;23;20301;-87
2022/12/27 11:54:36;;;;;;;1.03;0.97;;;8.00;99.90;;;;;;6186022;23;20151;-87
2022/12/27 11:57:34;;;;;;;5.20;1.70;;;7.90;99.90;;;;;;6212138;23;20180;-87
2022/12/27 12:00:12;;;;;;;3.53;1.40;;;8.00;99.90;;;;;;6185354;23;20150;-87
2022/12/27 12:02:51;;;;;;;5.70;1.30;;;8.20;99.90;;;;;;6211626;23;20248;-87
2022/12/27 12:05:30;;;;;;;0.33;0.33;;;8.30;99.90;;;;;;6211661;23;20158;-88
2022/12/27 12:08:19;;;;;;;3.77;2.10;;;8.30;99.90;;;;;;6185135;23;20170;-87
2022/12/27 12:10:52;;;;;;;1.47;1.33;;;8.20;99.90;;;;;;6185395;23;20151;-87
2022/12/27 12:13:41;;;;;;;1.13;0.97;;;8.20;99.90;;;;;;6212380;23;20146;-86
2022/12/27 12:16:39;;;;;;;1.87;1.70;;;8.10;99.90;;;;;;6186060;23;20155;-87
2022/12/27 12:19:20;;;;;;;0.93;0.83;;;8.00;99.90;;;;;;6212029;23;20162;-87
2022/12/27 12:22:22;;;;;;;0.87;0.87;;;7.90;99.90;;;;;;6211980;23;20219;-90
2022/12/27 12:24:51;;;;;;;1.30;1.30;;;7.90;99.90;;;;;;6210451;23;20146;-88
2022/12/27 12:27:44;;;;;;;3.00;0.93;;;8.00;99.90;;;;;;6183654;23;20181;-87
2022/12/27 12:30:36;;;;;;;1.00;0.97;;;8.00;99.90;;;;;;6210630;23;20166;-89
2022/12/27 12:33:09;;;;;;;2.70;1.37;;;7.90;99.90;;;;;;6184273;23;20712;-89
2022/12/27 12:36:11;;;;;;;1.20;1.10;;;7.90;99.90;;;;;;6210333;23;20152;-89
2022/12/27 12:39:05;;;;;;;1.20;1.10;;;7.90;99.90;;;;;;6209800;23;20251;-89
2022/12/27 12:41:55;;;;;;;0.20;0.20;;;7.90;99.90;;;;;;6211371;23;20185;-85
2022/12/27 12:44:35;;;;;;;3.20;2.07;;;7.90;99.90;;;;;;6211283;23;20188;-86
2022/12/27 12:47:35;;;;;;;4.90;2.87;;;7.90;99.90;;;;;;6211054;23;20216;-85
2022/12/27 12:50:07;;;;;;;1.70;1.27;;;8.00;99.90;;;;;;6185575;23;20212;-90
2022/12/27 12:52:51;;;;;;;1.47;0.73;;;8.30;99.90;;;;;;6211536;23;20142;-87
2022/12/27 12:55:38;;;;;;;0.57;0.57;;;8.60;99.90;;;;;;6210044;23;20158;-87
2022/12/27 12:58:29;;;;;;;3.17;2.87;;;8.50;99.90;;;;;;6210752;23;20154;-87
2022/12/27 13:01:22;;;;;;;1.63;1.53;;;8.20;99.90;;;;;;6210214;23;20154;-87
2022/12/27 13:04:09;;;;;;;5.20;1.93;;;8.10;99.90;;;;;;6183641;23;20150;-91
2022/12/27 13:06:57;;;;;;;5.57;1.20;;;8.00;99.90;;;;;;6183596;23;20146;-87
2022/12/27 13:10:00;;;;;;;7.37;3.03;;;8.00;99.90;;;;;;6209881;23;20155;-88
2022/12/27 13:12:47;;;;;;;5.80;3.90;;;7.90;99.90;;;;;;6211264;23;20154;-87
2022/12/27 13:15:19;;;;;;;3.50;2.27;;;7.70;99.90;;;;;;6185398;23;20146;-87
2022/12/27 13:18:10;;;;;;;5.83;2.47;;;7.60;99.90;;;;;;6184587;23;20150;-87
2022/12/27 13:21:11;;;;;;;5.10;4.60;;;7.50;99.90;;;;;;6184519;23;20593;-89
2022/12/27 13:24:08;;;;;;;3.07;2.63;;;7.50;99.90;;;;;;6210990;23;20162;-90
2022/12/27 13:26:49;;;;;;;2.23;1.93;;;7.50;99.90;;;;;;6184870;23;20192;-87
2022/12/27 13:29:24;;;;;;;3.70;1.50;;;7.40;99.90;;;;;;6185389;23;20189;-88
2022/12/27 13:32:03;;;;;;;2.17;1.53;;;7.30;99.90;;;;;;6185358;23;20577;-89
2022/12/27 13:35:01;;;;;;;1.80;1.23;;;7.20;99.90;;;;;;6185075;23;20520;-90
2022/12/27 13:37:51;;;;;;;4.30;1.43;;;7.20;99.90;;;;;;6135398;23;20157;-85
2022/12/27 13:40:38;;;;;;;3.37;1.80;;;7.10;99.90;;;;;;6211129;23;20225;-86
2022/12/27 13:43:28;;;;;;;1.73;1.60;;;7.10;99.90;;;;;;6210994;23;20349;-87
2022/12/27 13:46:32;;;;;;;2.60;2.23;;;7.00;99.90;;;;;;6210989;23;20154;-85
2022/12/27 13:49:10;;;;;;;1.57;1.47;;;7.00;99.90;;;;;;6184181;23;20170;-87
2022/12/27 13:51:50;;;;;;;1.10;0.90;;;6.90;99.90;;;;;;6184717;23;20184;-88
2022/12/27 13:54:40;;;;;;;2.00;1.27;;;6.90;99.90;;;;;;6211309;23;20611;-86
2022/12/27 13:57:43;;;;;;;5.83;1.63;;;6.90;99.90;;;;;;6210606;23;20162;-88
2022/12/27 14:00:16;;;;;;;1.53;1.07;;;7.00;99.90;;;;;;6211926;23;20233;-86
2022/12/27 14:02:48;;;;;;;7.00;1.40;;;6.90;99.90;;;;;;6186462;23;20680;-90
2022/12/27 14:05:43;;;;;;;2.50;1.63;;;6.80;99.90;;;;;;6185727;23;20664;-88
2022/12/27 14:08:47;;;;;;;7.23;1.73;;;6.80;99.90;;;;;;6212441;23;20171;-86
2022/12/27 14:11:53;;;;;;;9.93;4.17;;;6.70;99.90;;;;;;6212364;23;20147;-86
2022/12/27 14:14:20;;;;;;;2.57;1.07;;;6.70;99.90;;;;;;6212485;23;20150;-86
2022/12/27 14:17:10;;;;;;;3.90;2.40;;;6.60;99.90;;;;;;6160912;23;20160;-87
2022/12/27 14:20:07;;;;;;;3.27;1.83;;;6.70;99.90;;;;;;6211976;23;20150;-85
2022/12/27 14:23:04;;;;;;;5.93;2.47;;;6.70;99.90;;;;;;6186080;23;20150;-86
2022/12/27 14:25:32;;;;;;;9.10;5.20;;;6.80;99.90;;;;;;6185885;23;20644;-90
2022/12/27 14:28:17;;;;;;;2.97;2.77;;;6.80;99.90;;;;;;6184937;23;20209;-85
2022/12/27 14:31:11;;;;;;;28.50;12.17;;;6.80;99.90;;;;;;6185815;23;20169;-87
2022/12/27 14:33:50;;;;;;;0.60;0.60;;;6.80;99.90;;;;;;6186084;23;20272;-88
2022/12/27 14:36:48;;;;;;;1.03;1.03;;;6.80;99.90;;;;;;6185439;23;20146;-88
2022/12/27 14:39:55;;;;;;;1.10;1.10;;;6.70;99.90;;;;;;6212937;23;20597;-90
2022/12/27 14:42:24;;;;;;;0.77;0.77;;;6.70;99.90;;;;;;6171282;23;20237;-85
2022/12/27 14:45:13;;;;;;;5.13;2.00;;;6.70;99.90;;;;;;6210808;23;20175;-86
2022/12/27 14:48:33;;;;;;;0.90;0.90;;;6.70;99.90;;;;;;6185270;23;20239;-89
2022/12/27 14:51:20;;;;;;;1.53;1.43;;;6.60;99.90;;;;;;6090487;23;20161;-86
2022/12/27 14:53:55;;;;;;;0.87;0.87;;;6.60;99.90;;;;;;6185674;23;20173;-85
2022/12/27 14:56:49;;;;;;;5.17;2.03;;;6.50;99.90;;;;;;6212295;23;20157;-88
2022/12/27 14:59:34;;;;;;;1.20;1.10;;;6.40;99.90;;;;;;6212668;23;20150;-87
2022/12/27 15:02:15;;;;;;;1.33;1.17;;;6.40;99.90;;;;;;6185234;23;20154;-89
2022/12/27 15:05:25;;;;;;;6.67;4.03;;;6.40;99.90;;;;;;6184672;23;20500;-88
2022/12/27 15:08:31;;;;;;;7.77;6.07;;;6.30;99.90;;;;;;6211322;23;20728;-88
2022/12/27 15:11:14;;;;;;;3.03;2.40;;;6.20;99.90;;;;;;6186167;23;20177;-88
2022/12/27 15:14:01;;;;;;;4.87;3.37;;;6.10;99.90;;;;;;6212970;23;20151;-90
2022/12/27 15:16:59;;;;;;;6.63;5.73;;;6.10;99.90;;;;;;6186749;23;20154;-88